Time;durP1;ratioP1;P1;durP2;ratioP2;P2;SDS_P1;SDS_P2;PMS_P1;PMS_P2;Temp;Humidity;BMP_temperature;BMP_pressure;BME280_temperature;BME280_humidity;BME280_pressure;Samples;Min_cycle;Max_cycle;Signal;HPM_P1;HPM_P2
2021/07/25 00:00:08;;;;;;;6.50;5.90;;;;;;;33.06;24.30;94601.22;5073643;28;20048;-55
2021/07/25 00:02:35;;;;;;;6.88;6.15;;;;;;;33.17;24.11;94600.94;5076984;28;20052;-57
2021/07/25 00:05:05;;;;;;;6.60;5.90;;;;;;;33.24;24.54;94592.63;5076452;28;20049;-54
2021/07/25 00:07:32;;;;;;;5.72;5.22;;;;;;;33.10;24.73;94602.66;5075450;28;20052;-56
2021/07/25 00:10:00;;;;;;;5.90;5.35;;;;;;;33.24;24.04;94600.75;5076165;28;20047;-56
2021/07/25 00:12:27;;;;;;;6.40;5.80;;;;;;;33.55;24.13;94596.47;5076443;28;20041;-57
2021/07/25 00:14:54;;;;;;;6.05;5.43;;;;;;;33.28;24.33;94596.78;5042636;28;20371;-55
2021/07/25 00:17:22;;;;;;;6.18;5.68;;;;;;;33.16;24.54;94602.13;5076126;28;20063;-53
2021/07/25 00:19:49;;;;;;;6.65;6.05;;;;;;;32.99;24.67;94596.72;5076887;28;20056;-55
2021/07/25 00:22:17;;;;;;;7.45;5.63;;;;;;;32.99;24.59;94593.25;5085080;28;20043;-54
2021/07/25 00:24:50;;;;;;;6.50;5.90;;;;;;;33.15;24.44;94603.31;5096831;28;20056;-53
2021/07/25 00:27:26;;;;;;;5.53;5.03;;;;;;;33.04;24.23;94604.34;5083219;28;20049;-56
2021/07/25 00:29:53;;;;;;;6.55;5.63;;;;;;;33.07;23.98;94598.09;5059026;28;20083;-54
2021/07/25 00:32:20;;;;;;;6.55;5.60;;;;;;;33.09;24.35;94601.13;5076490;28;20044;-58
2021/07/25 00:34:48;;;;;;;6.35;5.75;;;;;;;33.15;24.15;94608.75;5076603;28;20041;-54
2021/07/25 00:37:20;;;;;;;6.28;5.70;;;;;;;32.97;23.99;94620.75;5075827;28;20363;-53
2021/07/25 00:39:47;;;;;;;6.40;5.80;;;;;;;33.16;24.18;94604.84;5058964;28;20044;-56
2021/07/25 00:42:15;;;;;;;6.20;5.57;;;;;;;32.97;23.98;94618.06;5075419;28;20048;-55
2021/07/25 00:44:42;;;;;;;6.20;5.60;;;;;;;32.97;24.14;94603.75;5076585;28;20052;-54
2021/07/25 00:47:09;;;;;;;6.97;5.30;;;;;;;32.94;24.52;94605.38;5058097;28;20060;-54
2021/07/25 00:49:36;;;;;;;6.13;5.63;;;;;;;32.73;24.71;94595.78;5075568;28;20044;-56
2021/07/25 00:52:06;;;;;;;6.88;6.15;;;;;;;32.71;24.84;94600.09;5082085;28;20043;-55
2021/07/25 00:54:35;;;;;;;6.85;5.82;;;;;;;32.72;24.37;94598.91;5095220;28;20059;-53
2021/07/25 00:57:02;;;;;;;7.32;6.00;;;;;;;33.05;24.29;94589.63;5095649;28;20050;-58
2021/07/25 00:59:30;;;;;;;5.85;5.28;;;;;;;32.93;24.07;94597.69;5096248;28;20059;-55
2021/07/25 01:01:57;;;;;;;6.20;5.57;;;;;;;32.98;24.42;94589.03;5096112;28;20371;-53
2021/07/25 01:04:38;;;;;;;6.35;5.75;;;;;;;33.01;24.38;94588.94;5096092;28;20319;-56
2021/07/25 01:07:48;;;;;;;6.28;5.72;;;;;;;32.62;24.54;94594.53;5075667;28;20059;-55
2021/07/25 01:10:29;;;;;;;5.95;5.35;;;;;;;32.80;24.42;94597.59;5011110;28;20041;-57
2021/07/25 01:13:00;;;;;;;6.40;5.80;;;;;;;32.88;24.44;94580.00;5075638;28;20052;-57
2021/07/25 01:15:29;;;;;;;7.13;6.32;;;;;;;32.65;24.30;94588.25;5075922;28;20056;-56
2021/07/25 01:17:59;;;;;;;6.13;5.53;;;;;;;32.63;24.56;94591.41;5095661;28;20055;-54
2021/07/25 01:20:26;;;;;;;6.53;5.97;;;;;;;32.65;24.43;94582.84;5095716;28;20043;-56
2021/07/25 01:22:56;;;;;;;6.25;5.65;;;;;;;32.50;24.39;94572.34;5095109;28;20055;-58
2021/07/25 01:25:25;;;;;;;6.55;5.95;;;;;;;32.66;24.28;94581.66;5071948;28;20056;-56
2021/07/25 01:28:17;;;;;;;6.20;5.43;;;;;;;32.63;24.24;94574.41;5075192;28;20064;-56
2021/07/25 01:30:51;;;;;;;6.43;5.82;;;;;;;32.38;24.61;94581.16;5057651;28;20071;-55
2021/07/25 01:33:20;;;;;;;7.25;6.55;;;;;;;32.67;24.54;94580.47;5056884;28;20044;-58
2021/07/25 01:35:49;;;;;;;6.40;5.80;;;;;;;32.71;24.28;94581.16;5056274;28;20079;-57
2021/07/25 01:38:16;;;;;;;6.63;6.03;;;;;;;32.65;24.53;94575.50;5057406;28;20045;-54
2021/07/25 01:40:59;;;;;;;6.97;6.15;;;;;;;32.67;24.52;94588.59;5057466;28;20048;-57
2021/07/25 01:43:26;;;;;;;8.05;5.78;;;;;;;32.54;24.69;94587.75;5074851;28;20048;-57
2021/07/25 01:45:53;;;;;;;6.35;5.75;;;;;;;32.87;23.86;94583.13;5074734;28;20470;-55
2021/07/25 01:48:21;;;;;;;9.40;5.95;;;;;;;32.70;24.07;94585.03;5074188;28;20052;-59
2021/07/25 01:50:48;;;;;;;5.90;5.40;;;;;;;32.79;23.99;94582.53;5074979;28;20041;-60
2021/07/25 01:53:18;;;;;;;7.57;5.57;;;;;;;32.44;24.33;94578.69;5090694;28;20351;-60
2021/07/25 01:55:45;;;;;;;6.10;5.50;;;;;;;32.45;24.51;94577.50;5091726;28;20043;-61
2021/07/25 01:58:12;;;;;;;6.63;5.72;;;;;;;32.37;24.32;94579.63;5073279;28;20052;-57
2021/07/25 02:00:40;;;;;;;6.53;5.93;;;;;;;32.41;24.41;94580.28;5073908;28;20049;-61
2021/07/25 02:03:07;;;;;;;7.28;5.65;;;;;;;32.48;24.20;94585.53;5056527;28;20371;-60
2021/07/25 02:05:37;;;;;;;5.80;5.28;;;;;;;32.51;24.27;94600.94;5074645;28;20044;-54
2021/07/25 02:08:05;;;;;;;6.88;6.18;;;;;;;32.26;24.82;94589.91;5074332;28;20052;-56
2021/07/25 02:10:32;;;;;;;6.95;6.25;;;;;;;32.23;24.90;94590.72;5074714;28;20481;-52
2021/07/25 02:12:59;;;;;;;6.25;5.65;;;;;;;32.36;24.58;94598.97;5074453;28;20044;-56
2021/07/25 02:15:26;;;;;;;5.97;5.32;;;;;;;32.42;24.16;94598.06;5073458;28;20044;-56
2021/07/25 02:17:54;;;;;;;6.25;5.75;;;;;;;32.11;24.90;94600.25;5073300;28;20040;-52
2021/07/25 02:20:21;;;;;;;6.50;5.95;;;;;;;32.36;24.44;94598.97;5074417;28;20049;-54
2021/07/25 02:22:48;;;;;;;6.88;6.18;;;;;;;32.22;24.54;94594.59;5081024;28;20083;-56
2021/07/25 02:25:15;;;;;;;7.60;5.82;;;;;;;32.06;24.78;94595.34;5073398;28;20451;-54
2021/07/25 02:27:42;;;;;;;6.47;5.88;;;;;;;32.13;24.75;94595.19;5092236;28;20055;-53
2021/07/25 02:30:09;;;;;;;6.65;6.05;;;;;;;32.25;24.52;94593.75;5094788;28;20059;-54
2021/07/25 02:32:36;;;;;;;6.13;5.53;;;;;;;32.32;24.68;94598.31;5093847;28;20044;-55
2021/07/25 02:35:04;;;;;;;7.22;6.50;;;;;;;32.27;24.82;94596.06;5094346;28;20052;-54
2021/07/25 02:37:31;;;;;;;6.55;5.88;;;;;;;32.37;24.53;94595.09;5093986;28;20044;-53
2021/07/25 02:39:58;;;;;;;6.85;6.10;;;;;;;32.38;24.40;94602.78;5094414;28;20059;-58
2021/07/25 02:42:25;;;;;;;6.85;6.15;;;;;;;32.51;24.06;94597.47;5076279;28;20052;-53
2021/07/25 02:44:52;;;;;;;8.07;5.57;;;;;;;32.38;24.23;94597.38;5094372;28;20059;-56
2021/07/25 02:47:19;;;;;;;7.18;6.03;;;;;;;32.33;24.58;94595.19;5093945;28;20063;-54
2021/07/25 02:49:46;;;;;;;6.55;5.95;;;;;;;32.24;24.76;94603.06;5093307;28;20048;-53
2021/07/25 02:52:14;;;;;;;6.43;5.82;;;;;;;32.41;24.04;94607.34;5083010;28;20044;-54
2021/07/25 02:54:41;;;;;;;6.53;5.88;;;;;;;32.68;24.09;94599.00;5073834;28;20060;-54
2021/07/25 02:57:08;;;;;;;7.07;6.38;;;;;;;32.45;24.27;94602.63;5084676;28;20044;-54
2021/07/25 02:59:35;;;;;;;8.63;6.03;;;;;;;32.46;24.14;94604.13;5094349;28;20052;-54
2021/07/25 03:02:02;;;;;;;6.55;5.95;;;;;;;32.05;24.76;94609.28;5093736;28;20051;-56
2021/07/25 03:04:29;;;;;;;6.53;5.93;;;;;;;32.41;24.37;94610.06;5092871;28;20055;-54
2021/07/25 03:06:56;;;;;;;7.05;5.72;;;;;;;32.25;24.42;94620.81;5093767;28;20056;-57
2021/07/25 03:09:23;;;;;;;6.10;5.55;;;;;;;32.39;24.02;94614.38;5094056;28;20079;-55
2021/07/25 03:11:50;;;;;;;6.57;5.75;;;;;;;32.22;24.80;94621.66;5094173;28;20366;-54
2021/07/25 03:14:17;;;;;;;8.48;6.32;;;;;;;32.06;24.82;94627.03;5076512;28;20055;-57
2021/07/25 03:16:46;;;;;;;6.43;5.82;;;;;;;32.25;24.46;94625.44;5092983;28;20469;-55
2021/07/25 03:19:13;;;;;;;6.90;6.20;;;;;;;32.10;24.88;94619.59;5093979;28;20394;-57
2021/07/25 03:21:40;;;;;;;6.40;5.80;;;;;;;32.26;24.66;94627.00;5093542;28;20048;-57
2021/07/25 03:24:07;;;;;;;6.57;5.97;;;;;;;32.14;24.84;94633.81;5094108;28;20075;-57
2021/07/25 03:26:34;;;;;;;7.55;6.20;;;;;;;32.14;24.88;94636.50;5087156;28;20455;-54
2021/07/25 03:29:01;;;;;;;7.97;6.30;;;;;;;32.38;24.21;94629.84;5072617;28;20049;-53
2021/07/25 03:31:28;;;;;;;6.50;5.85;;;;;;;32.10;25.08;94633.13;5073574;28;20070;-60
2021/07/25 03:33:58;;;;;;;7.68;6.25;;;;;;;32.33;24.37;94641.16;5072713;28;20044;-56
2021/07/25 03:36:26;;;;;;;6.68;6.07;;;;;;;32.12;25.09;94644.28;5076449;28;20052;-57
2021/07/25 03:38:53;;;;;;;6.95;6.28;;;;;;;32.15;24.96;94640.72;5077325;28;20044;-55
2021/07/25 03:41:20;;;;;;;6.50;5.90;;;;;;;32.19;25.04;94644.13;5077244;28;20056;-57
2021/07/25 03:43:47;;;;;;;8.10;6.32;;;;;;;32.31;24.56;94648.94;5076751;28;20052;-58
2021/07/25 03:46:16;;;;;;;9.45;6.20;;;;;;;32.07;25.35;94640.13;5076466;28;20052;-55
2021/07/25 03:48:44;;;;;;;6.68;6.07;;;;;;;32.11;24.97;94642.75;5076935;28;20451;-55
2021/07/25 03:51:12;;;;;;;6.75;5.97;;;;;;;32.19;24.96;94647.59;5076019;28;20048;-55
2021/07/25 03:53:39;;;;;;;6.90;6.30;;;;;;;32.22;25.21;94646.75;5095526;28;20043;-59
2021/07/25 03:56:06;;;;;;;8.90;6.80;;;;;;;32.09;25.33;94647.81;5096780;28;20054;-60
2021/07/25 03:58:33;;;;;;;6.72;6.13;;;;;;;31.90;25.64;94650.09;5096142;28;20051;-60
2021/07/25 04:01:00;;;;;;;8.00;6.28;;;;;;;32.29;25.13;94653.25;5096100;28;20066;-59
2021/07/25 04:03:27;;;;;;;6.43;5.82;;;;;;;32.00;25.28;94669.22;5097114;28;20386;-59
2021/07/25 04:05:54;;;;;;;6.53;5.63;;;;;;;32.12;25.03;94665.91;5096357;28;20047;-59
2021/07/25 04:08:21;;;;;;;6.20;5.70;;;;;;;32.09;25.39;94659.41;5095897;28;20059;-60
2021/07/25 04:10:48;;;;;;;6.22;5.70;;;;;;;32.32;24.95;94666.69;5096648;28;20051;-59
2021/07/25 04:13:15;;;;;;;7.07;6.38;;;;;;;32.31;24.98;94667.88;5096305;28;20386;-56
2021/07/25 04:15:45;;;;;;;6.53;5.70;;;;;;;32.19;25.37;94671.91;5090740;28;20056;-53
2021/07/25 04:18:12;;;;;;;7.07;5.93;;;;;;;32.10;25.14;94679.06;5076581;28;20055;-59
2021/07/25 04:20:39;;;;;;;6.68;5.80;;;;;;;32.43;24.67;94675.31;5096973;28;20044;-57
2021/07/25 04:23:07;;;;;;;6.85;6.15;;;;;;;32.40;25.31;94673.47;5095768;28;20052;-49
2021/07/25 04:25:34;;;;;;;6.43;5.82;;;;;;;32.37;24.99;94677.00;5089563;28;20059;-46
2021/07/25 04:28:03;;;;;;;6.45;5.82;;;;;;;32.42;24.97;94673.78;5096006;28;20043;-55
2021/07/25 04:30:31;;;;;;;6.20;5.60;;;;;;;32.55;24.74;94670.47;5096639;28;20047;-54
2021/07/25 04:32:58;;;;;;;7.07;6.38;;;;;;;32.45;25.16;94674.91;5096813;28;20051;-76
2021/07/25 04:35:26;;;;;;;8.05;5.68;;;;;;;32.68;24.91;94677.47;5100234;28;20051;-68
2021/07/25 04:37:55;;;;;;;5.95;5.35;;;;;;;32.83;24.59;94679.91;5098728;28;20067;-67
2021/07/25 04:40:24;;;;;;;6.40;5.53;;;;;;;32.67;24.55;94677.91;5096842;28;20465;-55
2021/07/25 04:42:56;;;;;;;6.85;5.38;;;;;;;33.20;24.04;94671.28;5096736;28;20055;-57
2021/07/25 04:45:28;;;;;;;6.28;5.57;;;;;;;32.96;25.09;94667.97;5095909;28;20052;-56
2021/07/25 04:48:17;;;;;;;6.28;5.68;;;;;;;32.82;24.93;94668.31;5092358;28;20056;-59
2021/07/25 04:50:46;;;;;;;6.40;5.70;;;;;;;32.77;25.20;94674.94;5078734;28;20047;-60
2021/07/25 04:53:24;;;;;;;5.75;5.25;;;;;;;33.53;24.18;94677.44;5091524;28;20047;-58
2021/07/25 04:56:02;;;;;;;5.88;5.38;;;;;;;33.09;24.60;94673.50;5096036;28;20055;-60
2021/07/25 04:58:44;;;;;;;6.72;5.70;;;;;;;32.93;25.05;94666.13;5088110;28;20082;-62
2021/07/25 05:01:15;;;;;;;6.00;5.45;;;;;;;33.03;24.51;94681.34;5095831;28;20047;-61
2021/07/25 05:03:42;;;;;;;6.78;6.15;;;;;;;32.92;24.48;94688.19;5096397;28;20361;-63
2021/07/25 05:06:12;;;;;;;8.07;6.22;;;;;;;33.04;24.80;94684.81;5095366;28;20402;-63
2021/07/25 05:08:39;;;;;;;6.93;6.22;;;;;;;33.10;24.57;94678.47;5095956;28;20040;-56
2021/07/25 05:11:16;;;;;;;6.63;6.00;;;;;;;33.18;24.33;94668.22;5095920;28;20407;-56
2021/07/25 05:13:49;;;;;;;6.30;5.70;;;;;;;33.07;24.69;94679.34;5095111;28;20032;-55
2021/07/25 05:16:31;;;;;;;6.63;5.80;;;;;;;33.39;24.28;94677.81;5096101;28;20377;-57
2021/07/25 05:19:21;;;;;;;6.93;6.13;;;;;;;33.41;24.49;94691.69;5095692;28;20051;-57
2021/07/25 05:22:02;;;;;;;7.57;6.88;;;;;;;33.31;24.11;94698.09;5079447;28;20055;-55
2021/07/25 05:24:36;;;;;;;7.63;6.85;;;;;;;33.37;24.56;94704.56;5085545;28;20063;-56
2021/07/25 05:27:03;;;;;;;7.25;6.55;;;;;;;33.69;23.91;94701.81;5057948;28;20093;-57
2021/07/25 05:29:30;;;;;;;7.40;6.13;;;;;;;33.49;24.44;94703.09;5039945;28;20051;-56
2021/07/25 05:31:57;;;;;;;7.38;6.63;;;;;;;33.63;24.20;94692.69;5075527;28;20044;-56
2021/07/25 05:34:24;;;;;;;6.75;6.15;;;;;;;33.75;23.99;94695.84;5075138;28;20056;-55
2021/07/25 05:36:52;;;;;;;7.20;6.60;;;;;;;33.97;23.70;94699.56;5074881;28;20071;-57
2021/07/25 05:39:18;;;;;;;7.40;6.60;;;;;;;34.09;23.66;94701.53;5085221;28;20052;-61
2021/07/25 05:41:46;;;;;;;9.48;6.80;;;;;;;34.05;23.81;94700.88;5081071;28;20040;-58
2021/07/25 05:44:13;;;;;;;7.05;6.45;;;;;;;34.17;23.60;94702.88;5079949;28;20054;-60
2021/07/25 05:46:40;;;;;;;7.32;6.63;;;;;;;34.21;23.80;94706.25;5095385;28;20044;-57
2021/07/25 05:49:07;;;;;;;6.95;6.25;;;;;;;34.22;23.54;94698.88;5095025;28;20370;-58
2021/07/25 05:51:34;;;;;;;6.53;5.93;;;;;;;34.35;23.54;94707.06;5093420;28;20048;-57
2021/07/25 05:54:01;;;;;;;8.75;6.68;;;;;;;34.05;23.82;94711.72;5090285;28;20055;-60
2021/07/25 05:56:28;;;;;;;7.95;6.68;;;;;;;34.24;23.57;94712.75;5074901;28;20048;-57
2021/07/25 05:58:55;;;;;;;7.45;6.40;;;;;;;34.38;23.75;94711.66;5073491;28;20052;-56
2021/07/25 06:01:22;;;;;;;6.75;6.25;;;;;;;34.48;23.46;94713.28;5074647;28;20048;-60
2021/07/25 06:03:49;;;;;;;6.90;6.30;;;;;;;34.71;23.62;94718.41;5073198;28;20052;-61
2021/07/25 06:06:16;;;;;;;6.40;5.80;;;;;;;34.57;23.69;94725.00;5074883;28;20052;-60
2021/07/25 06:08:43;;;;;;;6.63;5.95;;;;;;;34.67;23.63;94723.19;5073689;28;20055;-49
2021/07/25 06:11:11;;;;;;;7.32;6.63;;;;;;;34.80;23.45;94728.63;5074066;28;20060;-55
2021/07/25 06:13:38;;;;;;;6.90;6.20;;;;;;;35.09;23.29;94729.31;5074070;28;20040;-57
2021/07/25 06:16:05;;;;;;;6.90;5.82;;;;;;;35.18;23.19;94732.13;5074258;28;20052;-54
2021/07/25 06:18:32;;;;;;;6.03;5.43;;;;;;;36.00;22.08;94726.75;5074541;28;20047;-59
2021/07/25 06:20:59;;;;;;;8.02;6.07;;;;;;;35.77;22.24;94724.44;5073819;28;20052;-62
2021/07/25 06:23:26;;;;;;;7.22;6.55;;;;;;;35.93;22.03;94721.56;5091390;28;20470;-56
2021/07/25 06:25:53;;;;;;;6.47;5.88;;;;;;;36.07;22.06;94720.31;5094009;28;20056;-62
2021/07/25 06:28:20;;;;;;;6.50;5.60;;;;;;;36.46;21.43;94721.66;5094512;28;20043;-59
2021/07/25 06:30:47;;;;;;;5.85;5.35;;;;;;;37.41;19.96;94723.88;5075764;28;20351;-61
2021/07/25 06:33:14;;;;;;;5.93;5.32;;;;;;;37.23;20.50;94722.63;5074214;28;20053;-60
2021/07/25 06:35:42;;;;;;;6.00;5.47;;;;;;;36.42;21.61;94729.94;5090893;28;20066;-60
2021/07/25 06:38:14;;;;;;;5.90;5.28;;;;;;;36.37;21.45;94727.03;5093198;28;20054;-60
2021/07/25 06:40:52;;;;;;;6.05;5.47;;;;;;;37.32;20.80;94719.94;5094523;28;20062;-62
2021/07/25 06:43:20;;;;;;;7.60;5.93;;;;;;;36.64;20.86;94721.75;5094413;28;20047;-58
2021/07/25 06:45:54;;;;;;;6.20;5.70;;;;;;;36.46;21.08;94718.94;5075705;28;20056;-62
2021/07/25 06:48:26;;;;;;;5.57;5.07;;;;;;;36.27;21.68;94717.28;5073066;28;20055;-62
2021/07/25 06:50:58;;;;;;;7.20;5.97;;;;;;;35.91;22.08;94725.91;5074009;28;20060;-62
2021/07/25 06:53:28;;;;;;;6.07;5.47;;;;;;;36.47;21.64;94725.16;5073960;28;20051;-62
2021/07/25 06:55:57;;;;;;;7.13;5.50;;;;;;;36.53;21.35;94724.13;5093790;28;20047;-58
2021/07/25 06:58:24;;;;;;;6.55;5.55;;;;;;;36.79;21.16;94732.16;5092336;28;20048;-59
2021/07/25 07:00:51;;;;;;;6.90;5.15;;;;;;;37.00;20.51;94728.59;5080246;28;20048;-60
2021/07/25 07:03:19;;;;;;;6.22;5.22;;;;;;;38.03;19.77;94726.41;5090090;28;20047;-61
2021/07/25 07:05:47;;;;;;;5.65;5.15;;;;;;;38.14;19.54;94723.97;5077040;28;20469;-60
2021/07/25 07:08:14;;;;;;;6.40;5.80;;;;;;;37.82;19.48;94720.66;5079683;28;20052;-59
2021/07/25 07:10:43;;;;;;;5.93;5.28;;;;;;;37.81;19.46;94719.13;5098422;28;20056;-59
2021/07/25 07:13:12;;;;;;;6.13;5.55;;;;;;;37.31;20.41;94715.72;5098253;28;20039;-53
2021/07/25 07:15:41;;;;;;;5.70;5.20;;;;;;;37.63;20.05;94716.34;5098081;28;20405;-61
2021/07/25 07:18:09;;;;;;;5.53;4.95;;;;;;;37.60;20.09;94711.81;5098006;28;20457;-59
2021/07/25 07:20:36;;;;;;;5.85;5.07;;;;;;;38.00;19.38;94716.38;5097778;28;20061;-63
2021/07/25 07:23:08;;;;;;;6.00;5.32;;;;;;;38.60;18.90;94715.75;5088541;28;20068;-60
2021/07/25 07:25:38;;;;;;;5.85;5.25;;;;;;;38.60;18.94;94715.75;5092393;28;20059;-62
2021/07/25 07:28:06;;;;;;;5.88;5.38;;;;;;;38.39;19.00;94712.75;5097883;28;20457;-55
2021/07/25 07:30:33;;;;;;;7.82;5.30;;;;;;;38.66;19.16;94711.19;5098068;28;20327;-62
2021/07/25 07:33:11;;;;;;;6.53;5.50;;;;;;;38.11;19.00;94706.53;5098056;28;20043;-64
2021/07/25 07:35:39;;;;;;;5.95;5.30;;;;;;;38.29;19.13;94714.00;5087410;28;20056;-58
2021/07/25 07:38:08;;;;;;;9.80;5.82;;;;;;;38.19;19.28;94717.94;5081189;28;20354;-62
2021/07/25 07:40:36;;;;;;;6.40;5.80;;;;;;;38.14;18.80;94713.06;5097223;28;20062;-63
2021/07/25 07:43:04;;;;;;;7.03;6.35;;;;;;;38.30;19.22;94704.59;5097790;28;20040;-59
2021/07/25 07:45:32;;;;;;;5.90;5.40;;;;;;;38.12;19.17;94704.56;5097282;28;20055;-61
2021/07/25 07:47:59;;;;;;;6.20;5.60;;;;;;;38.13;19.55;94711.53;5096825;28;20048;-62
2021/07/25 07:50:26;;;;;;;5.57;5.07;;;;;;;38.23;19.35;94722.00;5096250;28;20063;-59
2021/07/25 07:52:53;;;;;;;5.72;5.15;;;;;;;38.10;19.30;94709.72;5096430;28;20361;-59
2021/07/25 07:55:20;;;;;;;6.18;5.57;;;;;;;38.04;19.39;94723.22;5085668;28;20352;-62
2021/07/25 07:57:48;;;;;;;5.43;4.93;;;;;;;38.63;18.65;94714.84;5076935;28;20055;-63
2021/07/25 08:00:15;;;;;;;5.65;5.18;;;;;;;38.66;18.43;94713.91;5076089;28;20057;-59
2021/07/25 08:02:43;;;;;;;5.85;4.53;;;;;;;38.86;18.74;94723.13;5076128;28;20051;-62
2021/07/25 08:05:11;;;;;;;8.38;5.28;;;;;;;38.92;18.76;94725.97;5090032;28;20044;-62
2021/07/25 08:07:39;;;;;;;5.80;5.28;;;;;;;38.71;18.35;94724.97;5094558;28;20093;-60
2021/07/25 08:10:07;;;;;;;5.63;5.10;;;;;;;38.78;18.55;94721.19;5095025;28;20477;-61
2021/07/25 08:12:35;;;;;;;8.95;5.78;;;;;;;38.75;18.38;94709.16;5095911;28;20056;-56
2021/07/25 08:15:03;;;;;;;6.13;5.35;;;;;;;38.82;18.72;94710.84;5097303;28;20040;-58
2021/07/25 08:17:30;;;;;;;6.68;5.05;;;;;;;39.12;18.27;94709.81;5096517;28;20052;-62
2021/07/25 08:19:57;;;;;;;5.28;4.88;;;;;;;38.77;18.46;94714.19;5081192;28;20058;-62
2021/07/25 08:22:24;;;;;;;6.80;5.53;;;;;;;39.16;17.63;94713.13;5085439;28;20052;-61
2021/07/25 08:24:51;;;;;;;5.50;5.00;;;;;;;39.13;17.78;94708.59;5096276;28;20051;-61
2021/07/25 08:27:19;;;;;;;5.95;5.15;;;;;;;39.25;18.09;94706.09;5095925;28;20055;-62
2021/07/25 08:29:46;;;;;;;6.75;5.28;;;;;;;39.37;18.11;94705.13;5096625;28;20039;-60
2021/07/25 08:32:13;;;;;;;6.32;5.68;;;;;;;39.40;17.96;94709.66;5096643;28;20052;-62
2021/07/25 08:34:46;;;;;;;6.07;5.47;;;;;;;39.08;18.15;94708.47;5096002;28;20043;-62
2021/07/25 08:37:13;;;;;;;5.72;5.15;;;;;;;39.38;18.05;94706.66;5095766;28;20059;-60
2021/07/25 08:39:40;;;;;;;5.93;5.38;;;;;;;39.08;17.73;94700.28;5096285;28;20051;-61
2021/07/25 08:42:11;;;;;;;6.07;5.47;;;;;;;39.47;18.02;94701.88;5096429;28;20048;-56
2021/07/25 08:44:53;;;;;;;7.65;5.20;;;;;;;39.19;17.35;94707.97;5096005;28;20044;-58
2021/07/25 08:47:25;;;;;;;6.32;5.72;;;;;;;39.08;17.62;94698.31;5096104;28;20058;-61
2021/07/25 08:50:00;;;;;;;5.93;4.95;;;;;;;39.21;17.18;94700.06;5096193;28;20040;-63
2021/07/25 08:52:31;;;;;;;6.45;5.85;;;;;;;39.44;17.71;94693.84;5091373;28;20132;-61
2021/07/25 08:55:00;;;;;;;6.10;5.50;;;;;;;39.53;17.07;94696.53;5075226;28;20047;-63
2021/07/25 08:57:33;;;;;;;6.55;5.82;;;;;;;39.44;17.62;94691.09;5075930;28;20051;-61
2021/07/25 09:00:00;;;;;;;6.95;5.63;;;;;;;39.74;17.55;94695.47;5075596;28;20048;-57
2021/07/25 09:02:29;;;;;;;6.00;5.40;;;;;;;39.30;16.93;94691.78;5079849;28;20048;-61
2021/07/25 09:04:57;;;;;;;5.97;5.38;;;;;;;39.23;16.94;94697.59;5096190;28;20048;-59
2021/07/25 09:07:27;;;;;;;5.60;5.05;;;;;;;39.28;16.54;94691.50;5078163;28;20060;-60
2021/07/25 09:09:56;;;;;;;6.13;5.25;;;;;;;39.46;17.30;94680.44;5095372;28;20044;-60
2021/07/25 09:12:25;;;;;;;7.20;5.72;;;;;;;39.60;16.79;94688.00;5095030;28;20055;-60
2021/07/25 09:15:01;;;;;;;6.28;4.95;;;;;;;39.67;16.53;94670.47;5095584;28;20378;-60
2021/07/25 09:17:29;;;;;;;5.13;4.55;;;;;;;40.13;16.46;94670.84;5095729;28;20055;-58
2021/07/25 09:20:35;;;;;;;5.18;4.68;;;;;;;40.22;16.20;94678.97;5079488;28;20056;-60
2021/07/25 09:23:12;;;;;;;6.20;4.72;;;;;;;39.71;16.07;94674.53;5046519;28;20056;-62
2021/07/25 09:25:49;;;;;;;4.50;4.10;;;;;;;39.99;16.19;94666.88;5074321;28;20052;-58
2021/07/25 09:28:27;;;;;;;5.80;4.93;;;;;;;39.76;15.75;94676.59;5076278;28;20063;-61
2021/07/25 09:30:54;;;;;;;5.22;4.32;;;;;;;40.01;15.69;94669.13;5095310;28;20469;-58
2021/07/25 09:33:28;;;;;;;5.30;4.40;;;;;;;40.21;16.20;94665.75;5094289;28;20062;-59
2021/07/25 09:36:13;;;;;;;5.90;4.40;;;;;;;40.16;15.78;94669.91;5095835;28;20362;-61
2021/07/25 09:38:41;;;;;;;4.43;4.00;;;;;;;39.75;15.09;94664.16;5095467;28;20048;-60
2021/07/25 09:41:16;;;;;;;4.93;3.72;;;;;;;39.46;14.62;94670.28;5095218;28;20378;-63
2021/07/25 09:43:51;;;;;;;4.25;3.72;;;;;;;39.61;14.37;94659.41;5095390;28;20047;-61
2021/07/25 09:46:18;;;;;;;4.10;3.70;;;;;;;39.49;14.43;94668.56;5076336;28;20332;-63
2021/07/25 09:48:56;;;;;;;3.53;3.17;;;;;;;39.69;14.26;94659.81;5095403;28;20060;-59
2021/07/25 09:51:24;;;;;;;3.47;3.17;;;;;;;39.72;14.45;94665.09;5094778;28;20048;-58
2021/07/25 09:53:53;;;;;;;4.82;3.10;;;;;;;40.02;14.24;94657.72;5080740;28;20052;-60
2021/07/25 09:56:27;;;;;;;3.58;3.28;;;;;;;40.11;14.31;94656.13;5074682;28;20045;-62
2021/07/25 09:58:55;;;;;;;3.83;3.40;;;;;;;40.02;14.45;94656.94;5080964;28;20058;-60
2021/07/25 10:01:39;;;;;;;5.40;4.38;;;;;;;39.85;13.69;94656.63;5094954;28;20044;-57
2021/07/25 10:04:15;;;;;;;5.07;3.58;;;;;;;39.94;13.51;94658.53;5094025;28;20048;-56
2021/07/25 10:06:43;;;;;;;5.72;3.53;;;;;;;40.01;13.75;94660.91;5094706;28;20044;-60
2021/07/25 10:09:12;;;;;;;4.20;3.22;;;;;;;40.25;13.41;94656.13;5093754;28;20052;-62
2021/07/25 10:11:48;;;;;;;4.30;3.25;;;;;;;40.12;13.55;94652.91;5094438;28;20055;-61
2021/07/25 10:14:20;;;;;;;3.65;2.65;;;;;;;40.51;12.64;94653.59;5094941;28;20060;-59
2021/07/25 10:16:56;;;;;;;5.57;3.22;;;;;;;40.36;12.81;94650.84;5095016;28;20050;-61
2021/07/25 10:19:28;;;;;;;4.43;3.00;;;;;;;40.36;13.22;94648.09;5094152;28;20060;-63
2021/07/25 10:21:57;;;;;;;3.83;3.40;;;;;;;40.53;13.26;94650.38;5094468;28;20055;-60
2021/07/25 10:24:25;;;;;;;4.15;3.10;;;;;;;40.42;12.86;94653.69;5076321;28;20052;-56
2021/07/25 10:26:58;;;;;;;4.75;3.15;;;;;;;40.35;13.27;94643.09;5074575;28;20730;-54
2021/07/25 10:29:25;;;;;;;4.13;3.22;;;;;;;40.63;13.09;94647.06;5074063;28;20055;-62
2021/07/25 10:31:52;;;;;;;3.50;3.20;;;;;;;40.27;13.04;94639.22;5055655;28;20059;-62
2021/07/25 10:34:22;;;;;;;3.50;3.20;;;;;;;40.09;13.27;94640.19;5056120;28;20040;-54
2021/07/25 10:36:53;;;;;;;3.72;3.42;;;;;;;40.05;13.22;94642.31;5073674;28;20036;-56
2021/07/25 10:39:21;;;;;;;3.75;3.20;;;;;;;40.25;13.05;94644.41;5073045;28;20064;-59
2021/07/25 10:41:49;;;;;;;6.03;3.50;;;;;;;40.10;12.61;94638.19;5056639;28;20060;-59
2021/07/25 10:44:17;;;;;;;3.30;3.00;;;;;;;40.16;12.53;94642.53;5072141;28;20052;-57
2021/07/25 10:46:44;;;;;;;3.90;2.80;;;;;;;40.18;12.82;94623.66;5074359;28;20044;-57
2021/07/25 10:49:18;;;;;;;4.57;3.30;;;;;;;40.24;12.67;94638.19;5073885;28;20478;-59
2021/07/25 10:51:59;;;;;;;3.80;3.33;;;;;;;40.07;12.63;94634.41;5078092;28;20048;-57
2021/07/25 10:54:26;;;;;;;3.38;2.90;;;;;;;40.09;12.78;94629.22;5089611;28;20064;-61
2021/07/25 10:57:11;;;;;;;4.63;3.00;;;;;;;39.85;13.00;94628.53;5073667;28;20055;-59
2021/07/25 10:59:58;;;;;;;3.38;2.90;;;;;;;39.96;12.82;94631.47;5073940;28;20052;-60
2021/07/25 11:02:25;;;;;;;5.07;3.22;;;;;;;39.74;13.19;94624.34;5056563;28;20055;-55
2021/07/25 11:04:55;;;;;;;4.10;3.13;;;;;;;40.10;13.16;94622.53;5055863;28;20052;-55
2021/07/25 11:07:24;;;;;;;3.20;2.90;;;;;;;40.19;12.84;94613.47;5089599;28;20055;-53
2021/07/25 11:09:59;;;;;;;3.45;3.15;;;;;;;39.98;12.82;94605.16;5081670;28;20060;-54
2021/07/25 11:12:45;;;;;;;3.30;3.00;;;;;;;39.82;12.84;94618.50;5074444;28;20044;-59
2021/07/25 11:15:32;;;;;;;5.22;3.00;;;;;;;39.41;12.90;94612.75;5073132;28;20052;-61
2021/07/25 11:18:08;;;;;;;4.72;2.90;;;;;;;39.86;12.50;94610.88;5073394;28;20119;-57
2021/07/25 11:20:51;;;;;;;3.33;3.03;;;;;;;39.87;12.42;94604.94;5072815;28;20360;-60
2021/07/25 11:23:21;;;;;;;3.05;2.85;;;;;;;39.66;12.57;94606.78;5090146;28;20055;-62
2021/07/25 11:25:49;;;;;;;3.30;2.67;;;;;;;39.81;12.32;94604.06;5094308;28;20068;-60
2021/07/25 11:28:43;;;;;;;2.90;2.70;;;;;;;39.38;12.35;94608.22;5094543;28;20044;-59
2021/07/25 11:31:11;;;;;;;3.22;2.90;;;;;;;39.45;12.18;94599.66;5090773;28;20052;-59
2021/07/25 11:33:44;;;;;;;3.20;2.90;;;;;;;39.81;12.35;94606.03;5093958;28;20052;-50
2021/07/25 11:36:15;;;;;;;3.30;2.70;;;;;;;39.88;11.85;94590.03;5093497;28;20047;-63
2021/07/25 11:38:47;;;;;;;5.43;3.00;;;;;;;39.66;12.37;94590.38;5093487;28;20051;-62
2021/07/25 11:41:19;;;;;;;3.28;2.58;;;;;;;39.69;12.40;94594.91;5093761;28;20497;-58
2021/07/25 11:44:02;;;;;;;3.85;3.05;;;;;;;39.71;12.40;94592.44;5093842;28;20056;-60
2021/07/25 11:46:47;;;;;;;5.07;2.97;;;;;;;39.71;12.39;94586.97;5093031;28;20063;-62